Time;durP1;ratioP1;P1;durP2;ratioP2;P2;SDS_P1;SDS_P2;PMS_P1;PMS_P2;Temp;Humidity;BMP_temperature;BMP_pressure;BME280_temperature;BME280_humidity;BME280_pressure;Samples;Min_cycle;Max_cycle;Signal;HPM_P1;HPM_P2
2021/07/29 00:00:58;;;;;;;4.97;4.33;;;18.10;99.90;;;;;;5034418;28;20190;-74
2021/07/29 00:03:24;;;;;;;4.80;4.40;;;18.10;99.90;;;;;;5015354;28;20175;-74
2021/07/29 00:05:50;;;;;;;5.93;4.67;;;18.10;99.90;;;;;;5031671;28;20189;-75
2021/07/29 00:08:17;;;;;;;5.40;4.90;;;18.10;99.90;;;;;;5031799;28;20194;-75
2021/07/29 00:10:44;;;;;;;5.63;4.70;;;18.10;99.90;;;;;;5031368;28;20178;-75
2021/07/29 00:13:09;;;;;;;6.10;4.53;;;18.10;99.90;;;;;;5031347;28;20177;-74
2021/07/29 00:15:35;;;;;;;5.10;4.60;;;18.00;99.90;;;;;;5013598;28;20184;-75
2021/07/29 00:20:28;;;;;;;5.20;4.77;;;18.00;99.90;;;;;;5031549;28;20221;-74
2021/07/29 00:22:58;;;;;;;4.60;4.23;;;18.00;99.90;;;;;;5031611;28;20572;-74
2021/07/29 00:25:25;;;;;;;5.97;4.20;;;18.00;99.90;;;;;;5031334;28;20244;-75
2021/07/29 00:27:52;;;;;;;4.37;4.07;;;18.00;99.90;;;;;;5031295;28;20590;-75
2021/07/29 00:30:20;;;;;;;4.93;4.37;;;18.00;99.90;;;;;;5013586;28;20587;-75
2021/07/29 00:32:46;;;;;;;4.83;4.43;;;18.00;99.90;;;;;;5031200;28;20185;-74
2021/07/29 00:35:14;;;;;;;7.17;4.70;;;18.00;99.90;;;;;;5032791;28;20174;-74
2021/07/29 00:37:46;;;;;;;5.47;4.97;;;18.10;99.90;;;;;;5032586;28;20181;-74
2021/07/29 00:40:13;;;;;;;4.83;4.43;;;18.10;99.90;;;;;;5031873;28;20281;-74
2021/07/29 00:42:39;;;;;;;9.67;5.30;;;18.10;99.90;;;;;;5032551;28;20173;-74
2021/07/29 00:45:05;;;;;;;5.70;5.20;;;18.10;99.90;;;;;;5031171;28;20253;-74
2021/07/29 00:47:32;;;;;;;5.33;4.90;;;18.10;99.90;;;;;;5013758;28;20174;-74
2021/07/29 00:49:58;;;;;;;5.70;5.20;;;18.10;99.90;;;;;;5026479;28;20215;-74
2021/07/29 00:52:24;;;;;;;6.20;5.70;;;18.10;99.90;;;;;;5031142;28;20650;-74
2021/07/29 00:54:51;;;;;;;6.13;5.63;;;18.10;99.90;;;;;;5030993;28;20208;-74
2021/07/29 00:57:17;;;;;;;6.93;6.13;;;18.10;99.90;;;;;;5029739;28;20178;-75
2021/07/29 00:59:43;;;;;;;6.77;5.80;;;18.10;99.90;;;;;;5033411;28;20247;-75
2021/07/29 01:02:09;;;;;;;7.30;5.27;;;18.10;99.90;;;;;;5032757;28;20658;-74
2021/07/29 01:04:35;;;;;;;6.37;5.67;;;18.10;99.90;;;;;;5035036;28;20173;-74
2021/07/29 01:07:01;;;;;;;6.13;5.63;;;18.10;99.90;;;;;;5036127;28;20177;-76
2021/07/29 01:09:26;;;;;;;6.90;6.30;;;18.10;99.90;;;;;;5027037;28;20202;-74
2021/07/29 01:11:52;;;;;;;6.23;5.73;;;18.10;99.90;;;;;;5034326;28;20261;-74
2021/07/29 01:14:18;;;;;;;7.30;5.63;;;18.10;99.90;;;;;;5034923;28;20178;-74
2021/07/29 01:16:43;;;;;;;6.10;5.53;;;18.10;99.90;;;;;;5035551;28;20240;-74
2021/07/29 01:19:11;;;;;;;6.80;6.13;;;18.10;99.90;;;;;;5024192;28;20208;-74
2021/07/29 01:21:38;;;;;;;6.40;5.90;;;18.10;99.90;;;;;;5015891;28;20181;-74
2021/07/29 01:24:04;;;;;;;5.73;5.23;;;18.10;99.90;;;;;;5024223;28;20512;-74
2021/07/29 01:26:30;;;;;;;6.20;5.67;;;18.10;99.90;;;;;;5034727;28;20174;-74
2021/07/29 01:28:56;;;;;;;6.80;6.30;;;18.10;99.90;;;;;;5034746;28;20209;-74
2021/07/29 01:31:22;;;;;;;6.90;5.40;;;18.00;99.90;;;;;;5021545;28;20179;-74
2021/07/29 01:33:48;;;;;;;6.53;5.87;;;18.00;99.90;;;;;;5016701;28;20181;-76
2021/07/29 01:36:14;;;;;;;6.50;6.00;;;17.90;99.90;;;;;;5033192;28;20280;-75
2021/07/29 01:38:40;;;;;;;6.17;5.67;;;17.90;99.90;;;;;;5033414;28;20666;-74
2021/07/29 01:41:05;;;;;;;6.97;6.47;;;17.90;99.90;;;;;;5032249;28;20194;-76
2021/07/29 01:43:32;;;;;;;8.60;5.93;;;17.90;99.90;;;;;;5031993;28;20680;-76
2021/07/29 01:45:58;;;;;;;5.73;5.17;;;17.90;99.90;;;;;;5031625;28;20287;-75
2021/07/29 01:48:27;;;;;;;6.63;5.13;;;17.90;99.90;;;;;;5026899;28;20689;-74
2021/07/29 01:50:53;;;;;;;5.83;5.33;;;17.90;99.90;;;;;;5026316;28;20182;-75
2021/07/29 01:53:19;;;;;;;6.60;5.23;;;17.90;99.90;;;;;;5015717;28;20185;-75
2021/07/29 01:55:46;;;;;;;5.97;5.43;;;17.80;99.90;;;;;;5010292;28;20183;-75
2021/07/29 01:58:13;;;;;;;5.57;5.07;;;17.80;99.90;;;;;;5031436;28;20639;-75
2021/07/29 02:00:42;;;;;;;5.70;5.20;;;17.80;99.90;;;;;;5018896;28;20278;-75
2021/07/29 02:03:09;;;;;;;6.00;5.27;;;17.80;99.90;;;;;;5025819;28;20260;-75
2021/07/29 02:05:34;;;;;;;6.43;5.13;;;17.70;99.90;;;;;;5027020;28;20256;-74
2021/07/29 02:08:01;;;;;;;6.50;5.97;;;17.70;99.90;;;;;;5014554;28;20289;-76
2021/07/29 02:10:27;;;;;;;6.13;5.63;;;17.70;99.90;;;;;;5012837;28;20191;-75
2021/07/29 02:12:55;;;;;;;8.07;6.13;;;17.70;99.90;;;;;;4999295;28;20183;-75
2021/07/29 02:15:21;;;;;;;7.37;6.63;;;17.60;99.90;;;;;;5026955;28;20189;-74
2021/07/29 02:17:46;;;;;;;7.40;6.70;;;17.60;99.90;;;;;;4999972;28;20185;-76
2021/07/29 02:20:13;;;;;;;6.90;6.30;;;17.60;99.90;;;;;;5001420;28;20202;-74
2021/07/29 02:22:39;;;;;;;7.20;6.50;;;17.60;99.90;;;;;;5027362;28;20177;-75
2021/07/29 02:25:05;;;;;;;6.83;6.23;;;17.50;99.90;;;;;;5030275;28;20223;-75
2021/07/29 02:27:32;;;;;;;6.60;6.00;;;17.50;99.90;;;;;;5027327;28;20669;-75
2021/07/29 02:29:58;;;;;;;7.33;6.40;;;17.50;99.90;;;;;;5028703;28;20230;-75
2021/07/29 02:32:24;;;;;;;6.40;5.90;;;17.50;99.90;;;;;;5026570;28;20205;-74
2021/07/29 02:34:52;;;;;;;7.47;6.70;;;17.40;99.90;;;;;;5028791;28;20181;-74
2021/07/29 02:37:18;;;;;;;6.80;6.10;;;17.40;99.90;;;;;;5030853;28;20635;-75
2021/07/29 02:39:43;;;;;;;6.67;6.00;;;17.40;99.90;;;;;;5032370;28;20208;-74
2021/07/29 02:42:09;;;;;;;6.13;5.60;;;17.40;99.90;;;;;;5014702;28;20546;-74
2021/07/29 02:44:34;;;;;;;6.00;5.57;;;17.40;99.90;;;;;;5015190;28;20176;-74
2021/07/29 02:47:00;;;;;;;6.50;5.73;;;17.40;99.90;;;;;;5016826;28;20595;-74
2021/07/29 02:49:26;;;;;;;6.40;5.80;;;17.40;99.90;;;;;;5034426;28;20707;-74
2021/07/29 02:51:52;;;;;;;6.90;6.30;;;17.40;99.90;;;;;;5033557;28;20207;-74
2021/07/29 02:54:18;;;;;;;6.63;6.13;;;17.30;99.90;;;;;;5034230;28;20180;-74
2021/07/29 02:56:43;;;;;;;6.40;5.90;;;17.20;99.90;;;;;;5034413;28;20255;-74
2021/07/29 02:59:09;;;;;;;6.77;6.00;;;17.20;99.90;;;;;;5018942;28;20279;-74
2021/07/29 03:01:34;;;;;;;6.60;5.90;;;17.20;99.90;;;;;;5034207;28;20654;-74
2021/07/29 03:04:00;;;;;;;6.43;5.80;;;17.20;99.90;;;;;;5034221;28;20178;-74
2021/07/29 03:06:26;;;;;;;8.00;5.77;;;17.20;99.90;;;;;;5034113;28;20349;-74
2021/07/29 03:08:52;;;;;;;8.63;5.90;;;17.30;99.90;;;;;;5034091;28;20199;-74
2021/07/29 03:11:17;;;;;;;6.50;5.77;;;17.20;99.90;;;;;;5034021;28;20646;-74
2021/07/29 03:13:43;;;;;;;6.27;5.63;;;17.20;99.90;;;;;;5033971;28;20177;-73
2021/07/29 03:16:09;;;;;;;6.13;5.40;;;17.20;99.90;;;;;;5033990;28;20174;-74
2021/07/29 03:18:34;;;;;;;8.20;5.57;;;17.20;99.90;;;;;;5034028;28;20205;-74
2021/07/29 03:21:00;;;;;;;7.30;5.60;;;17.20;99.90;;;;;;5016081;28;20219;-74
2021/07/29 03:23:27;;;;;;;5.67;5.17;;;17.20;99.90;;;;;;5033976;28;20182;-74
2021/07/29 03:25:53;;;;;;;5.67;5.07;;;17.20;99.90;;;;;;5033964;28;20169;-74
2021/07/29 03:28:20;;;;;;;7.13;5.70;;;17.20;99.90;;;;;;5033564;28;20195;-74
2021/07/29 03:30:45;;;;;;;5.57;5.07;;;17.20;99.90;;;;;;5033737;28;20180;-74
2021/07/29 03:33:11;;;;;;;7.90;5.27;;;17.10;99.90;;;;;;5033984;28;20173;-74
2021/07/29 03:35:38;;;;;;;5.60;5.17;;;17.10;99.90;;;;;;5033605;28;20188;-73
2021/07/29 03:38:05;;;;;;;5.67;5.27;;;17.10;99.90;;;;;;5033893;28;20599;-74
2021/07/29 03:40:32;;;;;;;5.60;5.20;;;17.00;99.90;;;;;;5015669;28;20658;-74
2021/07/29 03:43:01;;;;;;;6.40;5.83;;;17.10;99.90;;;;;;5016011;28;20177;-74
2021/07/29 03:45:30;;;;;;;6.27;5.60;;;17.00;99.90;;;;;;5033601;28;20237;-73
2021/07/29 03:47:57;;;;;;;7.40;5.67;;;17.10;99.90;;;;;;5033488;28;20260;-74
2021/07/29 03:50:23;;;;;;;11.20;5.70;;;17.10;99.90;;;;;;5015869;28;20281;-75
2021/07/29 03:52:48;;;;;;;5.17;4.73;;;17.00;99.90;;;;;;5013445;28;20209;-75
2021/07/29 03:55:14;;;;;;;5.83;4.53;;;17.00;99.90;;;;;;5032134;28;20212;-75
2021/07/29 03:57:40;;;;;;;9.47;5.50;;;17.10;99.90;;;;;;5031731;28;20174;-74
2021/07/29 04:00:06;;;;;;;13.07;4.93;;;17.00;99.90;;;;;;5033199;28;20204;-73
2021/07/29 04:02:33;;;;;;;5.90;5.30;;;17.00;99.90;;;;;;5030788;28;20633;-75
2021/07/29 04:04:59;;;;;;;6.10;5.50;;;16.90;99.90;;;;;;5038643;28;20212;-74
2021/07/29 04:07:24;;;;;;;10.70;5.23;;;17.00;99.90;;;;;;5032836;28;20204;-74
2021/07/29 04:09:50;;;;;;;7.97;6.23;;;17.00;99.90;;;;;;5032349;28;20206;-74
2021/07/29 04:12:16;;;;;;;5.93;5.43;;;16.90;99.90;;;;;;5032617;28;20266;-74
2021/07/29 04:14:42;;;;;;;8.87;5.90;;;17.00;99.90;;;;;;5032733;28;20272;-75
2021/07/29 04:17:08;;;;;;;7.67;5.43;;;17.00;99.90;;;;;;5032384;28;20233;-74
2021/07/29 04:19:34;;;;;;;6.03;5.00;;;17.00;99.90;;;;;;5033004;28;20236;-74
2021/07/29 04:22:00;;;;;;;7.13;5.00;;;17.00;99.90;;;;;;5015266;28;20173;-74
2021/07/29 04:24:28;;;;;;;5.23;4.83;;;16.90;99.90;;;;;;5015215;28;20184;-74
2021/07/29 04:26:57;;;;;;;11.63;5.43;;;16.90;99.90;;;;;;5033422;28;20231;-74
2021/07/29 04:29:24;;;;;;;7.43;5.23;;;16.90;99.90;;;;;;5033184;28;20190;-74
2021/07/29 04:31:53;;;;;;;5.80;4.83;;;16.90;99.90;;;;;;5033026;28;20181;-75
2021/07/29 04:34:20;;;;;;;6.17;5.57;;;16.90;99.90;;;;;;5010920;28;20180;-75
2021/07/29 04:36:46;;;;;;;7.13;5.23;;;16.80;99.90;;;;;;5014342;28;20176;-75
2021/07/29 04:39:13;;;;;;;5.83;5.30;;;16.90;99.90;;;;;;5015126;28;20194;-75
2021/07/29 04:41:40;;;;;;;7.60;5.20;;;16.90;99.90;;;;;;5032677;28;20177;-74
2021/07/29 04:44:11;;;;;;;5.97;5.47;;;16.90;99.90;;;;;;5032624;28;20265;-75
2021/07/29 04:46:38;;;;;;;8.17;5.67;;;16.90;99.90;;;;;;5032825;28;20212;-74
2021/07/29 04:49:05;;;;;;;6.43;5.90;;;17.00;99.90;;;;;;5020800;28;20689;-74
2021/07/29 04:51:32;;;;;;;5.47;5.00;;;17.00;99.90;;;;;;5032543;28;20644;-74
2021/07/29 04:53:58;;;;;;;6.13;5.60;;;17.00;99.90;;;;;;5027659;28;20594;-74
2021/07/29 04:56:24;;;;;;;6.97;6.00;;;17.10;99.90;;;;;;5014940;28;20177;-75
2021/07/29 04:58:49;;;;;;;6.50;5.90;;;17.10;99.90;;;;;;5019595;28;20582;-75
2021/07/29 05:01:16;;;;;;;7.23;6.63;;;17.10;99.90;;;;;;4992941;28;20690;-75
2021/07/29 05:03:42;;;;;;;5.97;5.47;;;17.10;99.90;;;;;;5016124;28;20187;-74
2021/07/29 05:06:07;;;;;;;9.53;6.57;;;17.10;99.90;;;;;;4994360;28;20257;-76
2021/07/29 05:08:35;;;;;;;8.53;5.77;;;17.10;99.90;;;;;;5040670;28;20232;-75
2021/07/29 05:11:04;;;;;;;6.50;5.53;;;17.20;99.90;;;;;;5031119;28;20651;-75
2021/07/29 05:13:31;;;;;;;6.47;5.57;;;17.20;99.90;;;;;;5032392;28;20185;-75
2021/07/29 05:15:58;;;;;;;6.87;5.67;;;17.20;99.90;;;;;;5031276;28;20269;-75
2021/07/29 05:18:23;;;;;;;6.17;5.30;;;17.20;99.90;;;;;;5032338;28;20762;-75
2021/07/29 05:20:49;;;;;;;5.50;5.00;;;17.30;99.90;;;;;;5032273;28;20288;-75
2021/07/29 05:23:15;;;;;;;5.90;5.50;;;17.30;99.90;;;;;;5032167;28;20178;-74
2021/07/29 05:25:41;;;;;;;6.30;5.80;;;17.40;99.90;;;;;;5013892;28;20638;-74
2021/07/29 05:28:07;;;;;;;5.97;5.47;;;17.40;99.90;;;;;;5022210;28;20614;-75
2021/07/29 05:30:35;;;;;;;6.20;5.67;;;17.40;99.90;;;;;;5032201;28;20212;-75
2021/07/29 05:33:01;;;;;;;7.47;5.77;;;17.50;99.90;;;;;;5032235;28;20227;-75
2021/07/29 05:35:27;;;;;;;6.67;5.90;;;17.50;99.90;;;;;;5032077;28;20207;-75
2021/07/29 05:37:53;;;;;;;6.33;5.33;;;17.60;99.90;;;;;;5032189;28;20206;-74
2021/07/29 05:40:19;;;;;;;7.10;6.17;;;17.60;99.90;;;;;;5032271;28;20571;-75
2021/07/29 05:42:45;;;;;;;6.33;5.73;;;17.60;99.90;;;;;;5032344;28;20182;-75
2021/07/29 05:45:11;;;;;;;9.30;5.97;;;17.70;99.90;;;;;;5032316;28;20591;-75
2021/07/29 05:47:36;;;;;;;7.17;6.07;;;17.70;99.90;;;;;;5035743;28;20236;-75
2021/07/29 05:50:03;;;;;;;8.37;6.30;;;17.70;99.90;;;;;;5073544;23;20325;-76
2021/07/29 05:52:29;;;;;;;6.57;5.97;;;17.80;99.90;;;;;;5053316;28;20199;-74
2021/07/29 05:54:55;;;;;;;6.97;6.10;;;17.80;99.90;;;;;;5036203;28;20166;-77
2021/07/29 05:57:20;;;;;;;6.23;5.23;;;17.90;99.90;;;;;;5055094;28;20182;-77
2021/07/29 05:59:46;;;;;;;5.87;5.30;;;17.90;99.90;;;;;;5043031;28;20247;-74
2021/07/29 06:02:11;;;;;;;6.97;5.10;;;17.90;99.90;;;;;;5035305;28;20208;-75
2021/07/29 06:04:37;;;;;;;7.93;5.20;;;18.00;99.90;;;;;;5035391;28;20181;-76
2021/07/29 06:07:03;;;;;;;5.03;4.60;;;18.00;99.90;;;;;;5035232;28;20202;-76
2021/07/29 06:09:28;;;;;;;5.33;4.57;;;18.00;99.90;;;;;;5035044;28;20216;-74
2021/07/29 06:11:54;;;;;;;6.13;4.57;;;18.10;99.90;;;;;;5035088;28;20178;-77
2021/07/29 06:14:20;;;;;;;4.77;4.37;;;18.20;99.90;;;;;;5037918;28;20224;-74
2021/07/29 06:16:45;;;;;;;4.67;4.27;;;18.30;99.90;;;;;;5034950;28;20206;-75
2021/07/29 06:19:19;;;;;;;5.43;4.43;;;18.40;99.90;;;;;;5034788;28;20208;-75
2021/07/29 06:21:45;;;;;;;5.87;4.00;;;18.50;99.90;;;;;;5034600;28;20223;-74
2021/07/29 06:24:11;;;;;;;4.77;4.37;;;18.50;99.90;;;;;;5034681;28;20777;-76
2021/07/29 06:26:38;;;;;;;4.50;4.10;;;18.50;99.90;;;;;;5033566;28;20174;-76
2021/07/29 06:29:06;;;;;;;5.43;4.13;;;18.60;99.90;;;;;;5034641;28;20202;-75
2021/07/29 06:31:32;;;;;;;5.73;4.20;;;18.60;99.90;;;;;;5025852;28;20224;-76
2021/07/29 06:33:59;;;;;;;4.80;4.10;;;18.80;99.90;;;;;;5021454;28;20190;-77
2021/07/29 06:36:25;;;;;;;4.17;3.50;;;18.90;99.90;;;;;;5028137;28;20559;-75
2021/07/29 06:38:50;;;;;;;4.07;3.67;;;19.00;99.90;;;;;;5033263;28;20197;-76
2021/07/29 06:41:16;;;;;;;4.50;4.20;;;19.10;99.90;;;;;;5033857;28;20205;-75
2021/07/29 06:43:42;;;;;;;4.03;3.73;;;19.10;99.90;;;;;;5032679;28;20185;-75
2021/07/29 06:46:09;;;;;;;4.30;3.87;;;19.20;99.90;;;;;;5033633;28;20252;-75
2021/07/29 06:48:35;;;;;;;4.67;3.33;;;19.20;99.90;;;;;;5032879;28;20170;-75
2021/07/29 06:51:02;;;;;;;3.57;3.27;;;19.20;99.90;;;;;;5015854;28;20193;-75
2021/07/29 06:53:28;;;;;;;4.03;3.17;;;19.20;99.90;;;;;;5032861;28;20257;-75
2021/07/29 06:55:53;;;;;;;3.90;3.03;;;19.30;99.90;;;;;;5033678;28;20202;-75
2021/07/29 06:58:21;;;;;;;3.43;3.20;;;19.30;99.90;;;;;;5032239;28;20170;-76
2021/07/29 07:00:47;;;;;;;4.30;3.50;;;19.30;99.90;;;;;;5033845;28;20281;-75
2021/07/29 07:03:12;;;;;;;3.40;3.10;;;19.20;99.90;;;;;;5033956;28;20253;-75
2021/07/29 07:05:44;;;;;;;7.30;3.00;;;19.30;99.90;;;;;;5031433;28;20209;-75
2021/07/29 07:08:10;;;;;;;3.30;3.00;;;19.30;99.90;;;;;;5026517;28;20282;-75
2021/07/29 07:10:36;;;;;;;3.23;2.93;;;19.30;99.90;;;;;;5029503;28;20285;-75
2021/07/29 07:13:01;;;;;;;4.80;3.00;;;19.40;99.90;;;;;;5036338;28;20215;-75
2021/07/29 07:15:27;;;;;;;2.90;2.70;;;19.50;99.90;;;;;;5021331;28;20183;-75
2021/07/29 07:17:54;;;;;;;3.13;2.80;;;19.50;99.90;;;;;;5016947;28;20191;-75
2021/07/29 07:20:20;;;;;;;3.17;2.67;;;19.50;99.90;;;;;;5033568;28;20245;-75
2021/07/29 07:22:46;;;;;;;2.83;2.50;;;19.50;99.90;;;;;;5033809;28;20178;-74
2021/07/29 07:25:11;;;;;;;3.30;2.93;;;19.40;99.90;;;;;;5034090;28;20674;-74
2021/07/29 07:27:37;;;;;;;4.70;2.90;;;19.60;99.90;;;;;;5029922;28;20174;-75
2021/07/29 07:30:03;;;;;;;4.27;2.93;;;19.70;99.90;;;;;;5033424;28;20234;-74
2021/07/29 07:32:29;;;;;;;3.33;3.03;;;19.80;99.90;;;;;;5033518;28;20253;-75
2021/07/29 07:34:54;;;;;;;3.20;3.00;;;19.70;99.90;;;;;;5033710;28;20592;-74
2021/07/29 07:37:20;;;;;;;3.50;2.73;;;19.60;99.90;;;;;;5033424;28;20207;-74
2021/07/29 07:39:47;;;;;;;3.40;3.10;;;19.80;99.90;;;;;;5033400;28;20245;-74
2021/07/29 07:42:12;;;;;;;3.97;3.17;;;19.80;99.90;;;;;;5033227;28;20170;-75
2021/07/29 07:44:38;;;;;;;3.20;2.90;;;19.70;99.90;;;;;;5033380;28;20178;-75
2021/07/29 07:47:04;;;;;;;3.40;3.10;;;19.70;99.90;;;;;;5033177;28;20185;-74
2021/07/29 07:49:29;;;;;;;3.40;3.10;;;19.70;99.90;;;;;;5033167;28;20682;-75
2021/07/29 07:51:55;;;;;;;3.13;2.70;;;19.80;99.90;;;;;;5033179;28;20186;-74
2021/07/29 07:54:20;;;;;;;2.83;2.60;;;19.90;99.90;;;;;;5033211;28;20666;-74
2021/07/29 07:56:46;;;;;;;3.50;3.20;;;20.00;99.90;;;;;;5033142;28;20617;-75
2021/07/29 07:59:12;;;;;;;4.67;3.13;;;20.10;99.90;;;;;;5033062;28;20609;-74
2021/07/29 08:01:42;;;;;;;3.03;2.60;;;20.30;99.90;;;;;;5033124;28;20185;-74
2021/07/29 08:04:08;;;;;;;3.50;2.80;;;20.20;99.90;;;;;;5032823;28;20190;-74
2021/07/29 08:06:34;;;;;;;2.47;2.20;;;20.20;99.90;;;;;;5033348;28;20229;-74
2021/07/29 08:09:01;;;;;;;2.57;2.37;;;20.00;99.90;;;;;;5032343;28;20704;-74
2021/07/29 08:11:26;;;;;;;2.70;2.43;;;20.10;99.90;;;;;;5032867;28;20186;-74
2021/07/29 08:13:52;;;;;;;4.70;2.30;;;20.20;99.90;;;;;;5032925;28;20197;-74
2021/07/29 08:16:17;;;;;;;3.00;2.47;;;20.20;99.90;;;;;;5014992;28;20233;-74
2021/07/29 08:18:43;;;;;;;3.97;2.70;;;20.20;99.90;;;;;;5033269;28;20210;-75
2021/07/29 08:21:12;;;;;;;2.97;2.77;;;20.10;99.90;;;;;;5034658;28;20234;-74
2021/07/29 08:23:41;;;;;;;3.93;2.60;;;20.10;99.90;;;;;;5032857;28;20261;-74
2021/07/29 08:26:07;;;;;;;2.97;2.77;;;20.00;99.90;;;;;;5032780;28;20185;-74
2021/07/29 08:28:43;;;;;;;3.20;2.70;;;20.10;99.90;;;;;;5032561;28;20265;-75
2021/07/29 08:31:10;;;;;;;2.80;2.60;;;20.30;99.90;;;;;;5032811;28;20181;-75
2021/07/29 08:33:35;;;;;;;3.00;2.70;;;20.40;99.90;;;;;;5014900;28;20224;-75
2021/07/29 08:36:01;;;;;;;3.40;3.10;;;20.40;99.90;;;;;;5032777;28;20182;-74
2021/07/29 08:38:27;;;;;;;3.00;2.80;;;20.50;99.90;;;;;;5032557;28;20178;-75
2021/07/29 08:40:56;;;;;;;5.17;2.80;;;20.50;99.90;;;;;;5032920;28;20621;-74
2021/07/29 08:43:22;;;;;;;2.83;2.57;;;20.40;99.90;;;;;;5032480;28;20190;-74
2021/07/29 08:45:51;;;;;;;3.37;2.87;;;20.50;99.90;;;;;;5032737;28;20194;-74
2021/07/29 08:48:26;;;;;;;2.90;2.70;;;20.50;99.90;;;;;;5032411;28;20178;-76
2021/07/29 08:50:53;;;;;;;2.93;2.63;;;20.70;99.90;;;;;;5032524;28;20221;-75
2021/07/29 08:53:19;;;;;;;4.77;2.73;;;20.90;99.90;;;;;;5032594;28;20186;-74
2021/07/29 08:55:50;;;;;;;3.57;3.00;;;21.00;99.90;;;;;;5032371;28;20182;-74
2021/07/29 08:58:16;;;;;;;4.37;2.90;;;21.00;99.90;;;;;;5014763;28;20189;-75
2021/07/29 09:01:06;;;;;;;3.33;2.90;;;21.10;99.90;;;;;;5032231;28;20210;-74
2021/07/29 09:03:38;;;;;;;2.70;2.50;;;21.20;99.90;;;;;;5032361;28;20630;-74
2021/07/29 09:06:07;;;;;;;3.47;2.67;;;21.30;99.90;;;;;;5031080;28;20182;-74
2021/07/29 09:08:51;;;;;;;3.17;2.87;;;21.20;99.90;;;;;;5032267;28;20248;-74
2021/07/29 09:11:36;;;;;;;4.93;3.40;;;21.40;99.90;;;;;;5034923;28;20186;-74
2021/07/29 09:14:14;;;;;;;3.03;2.83;;;21.60;99.90;;;;;;5029074;28;20622;-74
2021/07/29 09:17:03;;;;;;;3.07;2.77;;;21.70;99.90;;;;;;5025222;28;20183;-75
2021/07/29 09:19:31;;;;;;;3.57;2.90;;;21.80;99.90;;;;;;5032680;28;20206;-74
2021/07/29 09:22:19;;;;;;;3.27;2.43;;;21.90;99.90;;;;;;5024953;28;20250;-74
2021/07/29 09:25:03;;;;;;;4.03;2.93;;;22.00;99.90;;;;;;5030483;28;20175;-74
2021/07/29 09:27:37;;;;;;;2.63;2.43;;;22.00;99.90;;;;;;5036083;28;20171;-74
2021/07/29 09:30:18;;;;;;;3.53;2.93;;;21.90;99.90;;;;;;5035725;28;20327;-74
2021/07/29 09:32:54;;;;;;;3.37;2.83;;;21.80;99.90;;;;;;5035822;28;20185;-75
2021/07/29 09:35:28;;;;;;;3.00;2.80;;;21.80;99.90;;;;;;5033221;28;20643;-75
2021/07/29 09:37:54;;;;;;;3.13;2.83;;;21.80;99.90;;;;;;5035776;28;20178;-75
2021/07/29 09:40:21;;;;;;;4.20;3.20;;;21.80;99.90;;;;;;5035511;28;20301;-75
2021/07/29 09:43:06;;;;;;;3.13;2.77;;;21.80;99.90;;;;;;5018141;28;20578;-75
2021/07/29 09:45:32;;;;;;;3.20;2.87;;;21.80;99.90;;;;;;5035531;28;20205;-75
2021/07/29 09:47:59;;;;;;;5.17;2.80;;;22.10;99.90;;;;;;5035589;28;20205;-75
2021/07/29 09:50:25;;;;;;;3.60;3.00;;;22.20;99.90;;;;;;5035225;28;20248;-75
2021/07/29 09:52:53;;;;;;;5.13;3.37;;;22.40;99.90;;;;;;5035539;28;20178;-75
2021/07/29 09:55:21;;;;;;;3.27;2.97;;;22.30;99.90;;;;;;5035545;28;20259;-74
2021/07/29 09:57:46;;;;;;;3.10;2.80;;;22.30;99.90;;;;;;5017622;28;20174;-74
2021/07/29 10:00:13;;;;;;;3.47;2.93;;;22.40;99.90;;;;;;5035265;28;20210;-75
2021/07/29 10:02:40;;;;;;;3.43;3.13;;;22.60;99.90;;;;;;5035180;28;20298;-74
2021/07/29 10:05:07;;;;;;;3.03;2.80;;;22.50;99.90;;;;;;5017502;28;20185;-75
2021/07/29 10:07:38;;;;;;;4.57;3.47;;;22.50;99.90;;;;;;5035392;28;20256;-75
2021/07/29 10:10:04;;;;;;;3.60;2.90;;;22.60;99.90;;;;;;5035089;28;20195;-75
2021/07/29 10:12:32;;;;;;;4.13;2.83;;;22.40;99.90;;;;;;5034968;28;20651;-75
2021/07/29 10:15:01;;;;;;;4.47;3.13;;;22.40;99.90;;;;;;5035090;28;20233;-74
2021/07/29 10:17:36;;;;;;;3.43;3.13;;;22.50;99.90;;;;;;5017247;28;20182;-75
2021/07/29 10:20:16;;;;;;;3.63;2.80;;;22.30;99.90;;;;;;5034816;28;20213;-76
2021/07/29 10:22:43;;;;;;;3.27;2.97;;;22.30;99.90;;;;;;5036996;28;20170;-75
2021/07/29 10:25:09;;;;;;;5.37;3.03;;;22.20;99.90;;;;;;5035098;28;20635;-75
2021/07/29 10:27:35;;;;;;;4.50;3.27;;;22.30;99.90;;;;;;5017105;28;20577;-75
2021/07/29 10:30:19;;;;;;;4.13;2.87;;;22.70;99.90;;;;;;5034639;28;20197;-75
2021/07/29 10:32:46;;;;;;;4.73;3.07;;;23.00;99.90;;;;;;5034039;28;20181;-75
2021/07/29 10:35:30;;;;;;;3.20;3.00;;;23.10;99.90;;;;;;5034631;28;20181;-75
2021/07/29 10:37:59;;;;;;;3.10;2.80;;;23.30;99.90;;;;;;5034583;28;20221;-75
2021/07/29 10:40:36;;;;;;;2.70;2.50;;;23.30;99.90;;;;;;5034712;28;20570;-75
2021/07/29 10:43:31;;;;;;;3.40;3.10;;;23.50;99.90;;;;;;5016757;28;20182;-75
2021/07/29 10:45:58;;;;;;;3.90;3.13;;;23.30;99.90;;;;;;5025467;28;20186;-75
2021/07/29 10:48:46;;;;;;;4.50;2.90;;;23.10;99.90;;;;;;5016302;28;20175;-75
2021/07/29 10:51:23;;;;;;;4.20;3.10;;;23.20;99.90;;;;;;5034838;28;20273;-75
2021/07/29 10:53:54;;;;;;;3.50;3.20;;;23.30;99.90;;;;;;5034385;28;20166;-74
2021/07/29 10:56:22;;;;;;;3.27;2.97;;;23.40;99.90;;;;;;5034306;28;20175;-75
2021/07/29 10:58:50;;;;;;;3.93;3.20;;;23.50;99.90;;;;;;5034051;28;20269;-75
2021/07/29 11:01:17;;;;;;;3.63;3.33;;;23.40;99.90;;;;;;5016307;28;20212;-75
2021/07/29 11:03:47;;;;;;;3.33;3.03;;;23.50;99.90;;;;;;5034043;28;20167;-74
2021/07/29 11:06:37;;;;;;;3.40;3.20;;;23.50;99.90;;;;;;5034142;28;20170;-74
2021/07/29 11:09:21;;;;;;;4.40;3.03;;;23.80;99.90;;;;;;5033907;28;20280;-75
2021/07/29 11:11:49;;;;;;;3.60;3.30;;;23.90;99.90;;;;;;5026060;28;20174;-75
2021/07/29 11:14:21;;;;;;;3.97;3.50;;;24.00;99.90;;;;;;5036404;28;20539;-75
2021/07/29 11:16:50;;;;;;;3.73;3.43;;;24.20;99.90;;;;;;5033978;28;20181;-75
2021/07/29 11:19:16;;;;;;;5.00;3.33;;;24.30;99.90;;;;;;5033664;28;20244;-75
2021/07/29 11:21:42;;;;;;;4.77;3.30;;;24.00;99.90;;;;;;5016351;28;20637;-75
2021/07/29 11:24:24;;;;;;;3.43;3.10;;;24.00;99.90;;;;;;5033754;28;20206;-75
2021/07/29 11:26:50;;;;;;;11.20;3.80;;;24.20;99.90;;;;;;5033701;28;20162;-75
2021/07/29 11:29:16;;;;;;;3.30;3.10;;;24.20;99.90;;;;;;5033712;28;20205;-75
2021/07/29 11:31:42;;;;;;;3.63;3.33;;;24.40;99.90;;;;;;5033434;28;20178;-75
2021/07/29 11:34:08;;;;;;;3.87;3.57;;;24.50;99.90;;;;;;5033536;28;20178;-75
2021/07/29 11:36:34;;;;;;;3.97;3.67;;;24.50;99.90;;;;;;5033389;28;20174;-75
2021/07/29 11:39:04;;;;;;;3.43;3.10;;;24.50;99.90;;;;;;5015718;28;20244;-75
2021/07/29 11:41:31;;;;;;;3.90;3.20;;;24.70;99.90;;;;;;5033271;28;20545;-75
2021/07/29 11:44:03;;;;;;;4.10;3.27;;;24.80;99.90;;;;;;5032677;28;20174;-75
2021/07/29 11:46:29;;;;;;;4.17;3.20;;;24.70;99.90;;;;;;5033472;28;20173;-75
2021/07/29 11:52:09;;;;;;;4.87;3.53;;;24.50;99.90;;;;;;5074193;23;20232;-74
2021/07/29 11:54:35;;;;;;;4.30;3.83;;;24.20;99.90;;;;;;5035438;28;20174;-76
2021/07/29 11:57:02;;;;;;;5.30;3.80;;;24.10;99.90;;;;;;5040733;28;20229;-75
2021/07/29 11:59:39;;;;;;;4.43;3.83;;;24.20;99.90;;;;;;5053419;28;20563;-76
2021/07/29 12:02:06;;;;;;;4.07;3.67;;;24.40;99.90;;;;;;5033405;28;20174;-75
2021/07/29 12:04:38;;;;;;;4.17;3.87;;;24.50;99.90;;;;;;5033160;28;20166;-76
2021/07/29 12:07:04;;;;;;;4.23;3.83;;;24.70;99.90;;;;;;5033474;28;20530;-75
2021/07/29 12:09:35;;;;;;;5.60;4.10;;;24.80;99.90;;;;;;5029226;28;20224;-76
2021/07/29 12:12:02;;;;;;;4.20;3.90;;;24.60;99.90;;;;;;5033105;28;20249;-75
2021/07/29 12:14:28;;;;;;;3.93;3.63;;;24.70;99.90;;;;;;5015384;28;20170;-75
2021/07/29 12:16:54;;;;;;;4.10;3.80;;;24.80;99.90;;;;;;5031471;28;20619;-75
2021/07/29 12:19:21;;;;;;;5.67;4.00;;;24.90;99.90;;;;;;5033137;28;20177;-76
2021/07/29 12:21:52;;;;;;;4.00;3.60;;;25.10;99.90;;;;;;5032707;28;20284;-75
2021/07/29 12:24:18;;;;;;;3.90;3.53;;;24.90;99.90;;;;;;5033155;28;20167;-76
2021/07/29 12:27:07;;;;;;;4.67;4.20;;;24.80;99.90;;;;;;5032826;28;20309;-74
2021/07/29 12:29:44;;;;;;;3.63;3.33;;;24.80;99.90;;;;;;5014897;28;20193;-74
2021/07/29 12:32:19;;;;;;;4.40;4.00;;;24.80;99.90;;;;;;5004860;28;20171;-74
2021/07/29 12:34:45;;;;;;;4.57;3.70;;;24.80;99.90;;;;;;4999966;28;20171;-74
2021/07/29 12:37:11;;;;;;;3.73;3.43;;;24.80;99.90;;;;;;5028089;28;20542;-74
2021/07/29 12:39:36;;;;;;;5.77;3.63;;;24.80;99.90;;;;;;5032650;28;20675;-74
2021/07/29 12:42:23;;;;;;;3.90;3.60;;;24.80;99.90;;;;;;5015036;28;20657;-74
2021/07/29 12:45:05;;;;;;;4.10;3.70;;;25.00;99.90;;;;;;5012737;28;20184;-74
2021/07/29 12:47:31;;;;;;;4.20;3.80;;;25.00;99.90;;;;;;4999083;28;20179;-75
2021/07/29 12:49:57;;;;;;;4.00;3.60;;;25.10;99.90;;;;;;5008953;28;20653;-75
2021/07/29 12:52:25;;;;;;;4.70;4.40;;;25.30;99.90;;;;;;5005702;28;20208;-75
2021/07/29 12:54:59;;;;;;;4.20;3.90;;;25.30;99.90;;;;;;5008718;28;20202;-75